Time;durP1;ratioP1;P1;durP2;ratioP2;P2;SDS_P1;SDS_P2;PMS_P1;PMS_P2;Temp;Humidity;BMP_temperature;BMP_pressure;BME280_temperature;BME280_humidity;BME280_pressure;Samples;Min_cycle;Max_cycle;Signal;HPM_P1;HPM_P2
2021/09/09 04:47:08;;;;;;;19.77;11.40;;;;;;;9.27;92.90;98798.97;1827847;78;20883;-60
2021/09/09 04:49:35;;;;;;;16.52;10.58;;;;;;;9.38;92.87;98797.92;1828066;78;21341;-60
2021/09/09 04:52:04;;;;;;;16.77;9.98;;;;;;;9.52;92.90;98800.90;1827815;78;20916;-65
2021/09/09 04:54:31;;;;;;;17.48;9.95;;;;;;;9.70;92.91;98798.28;1828061;78;20927;-60
2021/09/09 04:56:58;;;;;;;14.20;9.33;;;;;;;9.90;92.80;98795.63;1807568;78;20896;-60
2021/09/09 04:59:29;;;;;;;12.33;9.30;;;;;;;10.10;92.63;98801.78;1827968;78;21264;-63
2021/09/09 05:01:56;;;;;;;15.85;9.68;;;;;;;10.34;92.43;98802.08;1828047;78;21064;-63
2021/09/09 05:04:23;;;;;;;17.10;10.00;;;;;;;10.57;92.03;98792.70;1827700;78;20903;-60
2021/09/09 05:06:51;;;;;;;17.70;9.90;;;;;;;10.76;91.57;98789.16;1827932;78;21498;-64
2021/09/09 05:09:20;;;;;;;18.12;10.43;;;;;;;10.91;91.12;98787.79;1827924;78;21427;-63
2021/09/09 05:11:47;;;;;;;21.27;10.00;;;;;;;11.07;90.66;98790.43;1807273;78;20876;-60
2021/09/09 05:14:14;;;;;;;20.50;10.63;;;;;;;11.21;90.23;98787.42;1827969;78;21737;-61
2021/09/09 05:16:42;;;;;;;20.85;10.50;;;;;;;11.36;89.82;98792.70;1827698;78;21351;-63
2021/09/09 05:19:14;;;;;;;21.75;9.88;;;;;;;11.51;89.43;98785.40;1827679;78;20967;-62
2021/09/09 05:21:46;;;;;;;16.62;9.33;;;;;;;11.66;88.97;98781.80;1782410;78;20990;-63
2021/09/09 05:24:16;;;;;;;17.12;8.73;;;;;;;11.83;88.41;98786.29;1762931;80;20911;-63
2021/09/09 05:26:47;;;;;;;21.25;9.45;;;;;;;12.00;87.75;98788.05;1761417;80;21132;-63
2021/09/09 05:29:16;;;;;;;20.48;8.95;;;;;;;12.19;87.11;98788.98;1761854;80;20910;-67
2021/09/09 05:31:51;;;;;;;18.35;9.98;;;;;;;12.38;86.54;98790.97;1791790;80;20923;-63
2021/09/09 05:34:30;;;;;;;20.40;9.58;;;;;;;12.58;85.65;98780.02;1733053;80;21374;-63
2021/09/09 05:37:08;;;;;;;19.17;8.78;;;;;;;12.75;84.93;98777.16;1791092;79;20970;-63
2021/09/09 05:39:37;;;;;;;16.97;9.43;;;;;;;12.94;83.94;98779.91;1738665;80;20914;-61
2021/09/09 05:42:04;;;;;;;22.95;9.08;;;;;;;13.13;83.14;98776.77;1791247;80;20867;-61
2021/09/09 05:44:33;;;;;;;14.33;8.60;;;;;;;13.29;82.24;98772.80;1778612;80;20962;-61
2021/09/09 05:47:01;;;;;;;15.45;8.15;;;;;;;13.43;81.38;98768.30;1777666;80;20880;-64
2021/09/09 05:49:31;;;;;;;14.53;8.63;;;;;;;13.58;80.56;98773.48;1777856;80;21049;-61
2021/09/09 05:51:58;;;;;;;20.00;9.28;;;;;;;13.73;79.89;98771.67;1777777;80;21114;-64
2021/09/09 05:54:26;;;;;;;16.35;8.53;;;;;;;13.89;79.42;98769.81;1756422;80;20844;-60
2021/09/09 05:56:54;;;;;;;17.10;8.68;;;;;;;14.03;78.45;98765.81;1777210;80;20912;-63
2021/09/09 05:59:24;;;;;;;18.70;7.92;;;;;;;14.16;77.42;98761.02;1777157;80;20943;-66
2021/09/09 06:01:52;;;;;;;18.45;7.05;;;;;;;14.27;76.50;98761.12;1777278;80;20928;-65
2021/09/09 06:04:20;;;;;;;13.53;7.15;;;;;;;14.39;75.13;98756.06;1777204;80;21121;-63
2021/09/09 06:06:48;;;;;;;10.13;6.83;;;;;;;14.50;74.16;98757.50;1777291;80;20896;-63
2021/09/09 06:09:18;;;;;;;12.30;7.03;;;;;;;14.61;73.71;98758.91;1777836;80;20891;-62
2021/09/09 06:11:51;;;;;;;9.35;6.35;;;;;;;14.70;73.13;98753.08;1757010;80;21034;-60
2021/09/09 06:14:21;;;;;;;10.23;6.92;;;;;;;14.84;72.48;98760.63;1778037;80;21465;-61
2021/09/09 06:16:51;;;;;;;9.58;6.62;;;;;;;14.94;71.74;98757.73;1777404;80;20966;-60
2021/09/09 06:19:30;;;;;;;9.93;6.80;;;;;;;15.07;71.66;98759.63;1756856;80;20971;-63
2021/09/09 06:22:14;;;;;;;11.48;5.90;;;;;;;15.21;70.48;98758.83;1778018;80;20915;-62
2021/09/09 06:25:13;;;;;;;8.90;5.90;;;;;;;15.33;69.65;98753.72;1778053;80;21029;-62
2021/09/09 06:27:50;;;;;;;10.00;6.78;;;;;;;15.44;68.98;98757.79;1733812;80;20919;-63
2021/09/09 06:30:20;;;;;;;8.75;6.05;;;;;;;15.54;68.90;98753.02;1756805;80;21131;-64
2021/09/09 06:32:47;;;;;;;10.13;6.25;;;;;;;15.65;68.49;98746.82;1755724;80;20900;-62
2021/09/09 06:35:15;;;;;;;11.35;6.20;;;;;;;15.73;68.01;98754.21;1767731;80;21044;-62
2021/09/09 06:37:46;;;;;;;12.25;6.20;;;;;;;15.81;68.32;98749.41;1766940;80;21003;-61
2021/09/09 06:40:19;;;;;;;9.70;5.83;;;;;;;15.92;68.29;98751.34;1755562;80;21121;-62
2021/09/09 06:42:49;;;;;;;10.00;5.85;;;;;;;16.02;67.44;98757.28;1755297;79;21159;-61
2021/09/09 06:45:16;;;;;;;16.25;6.42;;;;;;;16.15;67.68;98756.44;1762170;80;21034;-61
2021/09/09 06:47:46;;;;;;;9.90;5.33;;;;;;;16.26;67.40;98756.97;1762141;80;21443;-62
2021/09/09 06:50:14;;;;;;;8.38;5.20;;;;;;;16.38;66.99;98750.45;1770836;79;20939;-59
2021/09/09 06:52:41;;;;;;;16.60;5.53;;;;;;;16.52;66.21;98761.21;1773702;79;21056;-63
2021/09/09 06:55:08;;;;;;;8.00;4.60;;;;;;;16.62;66.28;98754.19;1774486;80;21142;-61
2021/09/09 06:57:35;;;;;;;10.50;5.17;;;;;;;16.72;65.63;98757.41;1776017;80;21519;-61
2021/09/09 07:00:04;;;;;;;8.53;5.00;;;;;;;16.80;64.91;98759.91;1777260;80;20963;-63
2021/09/09 07:02:31;;;;;;;10.53;4.42;;;;;;;16.88;63.80;98751.85;1777305;80;21576;-62
2021/09/09 07:04:58;;;;;;;9.90;4.90;;;;;;;16.99;63.83;98760.47;1777228;80;20881;-60
2021/09/09 07:07:31;;;;;;;8.58;4.45;;;;;;;17.08;63.44;98748.56;1777599;80;21125;-63
2021/09/09 07:09:58;;;;;;;8.70;4.20;;;;;;;17.18;62.82;98755.60;1777094;80;20956;-64
2021/09/09 07:12:26;;;;;;;6.72;3.90;;;;;;;17.26;61.86;98756.19;1777039;80;21433;-63
2021/09/09 07:14:54;;;;;;;9.18;4.17;;;;;;;17.34;61.09;98755.39;1776902;80;20970;-61
2021/09/09 07:17:22;;;;;;;7.80;4.37;;;;;;;17.43;61.02;98761.63;1773638;80;21512;-63
2021/09/09 07:19:50;;;;;;;5.70;4.00;;;;;;;17.52;60.20;98754.91;1740466;82;21208;-60
2021/09/09 07:22:20;;;;;;;8.05;4.05;;;;;;;17.60;59.90;98762.23;1737552;82;21003;-63
2021/09/09 07:24:47;;;;;;;7.28;4.10;;;;;;;17.68;59.24;98756.84;1759152;81;20933;-61
2021/09/09 07:27:15;;;;;;;10.13;3.70;;;;;;;17.78;59.15;98755.16;1760345;81;21014;-61
2021/09/09 07:29:44;;;;;;;7.60;4.00;;;;;;;17.89;58.55;98758.36;1756186;81;21568;-61
2021/09/09 07:32:17;;;;;;;6.78;3.75;;;;;;;17.98;58.06;98762.41;1777951;79;21126;-63
2021/09/09 07:34:48;;;;;;;7.28;3.87;;;;;;;18.06;57.25;98763.78;1811357;77;21054;-62
2021/09/09 07:37:15;;;;;;;6.58;3.52;;;;;;;18.13;56.62;98762.73;1810590;79;20969;-63
2021/09/09 07:39:43;;;;;;;5.40;3.47;;;;;;;18.21;55.94;98759.75;1814560;77;21075;-61
2021/09/09 07:42:10;;;;;;;7.20;3.92;;;;;;;18.31;56.39;98764.85;1813496;79;21121;-63
2021/09/09 07:44:37;;;;;;;9.03;4.05;;;;;;;18.40;56.28;98765.07;1822015;78;21115;-63
2021/09/09 07:47:05;;;;;;;13.20;4.75;;;;;;;18.49;55.50;98761.59;1767416;80;21022;-62
2021/09/09 07:49:33;;;;;;;8.73;4.10;;;;;;;18.58;55.90;98760.45;1761520;80;20911;-61
2021/09/09 07:52:00;;;;;;;6.33;3.67;;;;;;;18.72;55.41;98762.95;1772985;80;21430;-64
2021/09/09 07:54:27;;;;;;;8.98;3.83;;;;;;;18.81;55.20;98759.09;1786763;80;21070;-63
2021/09/09 07:56:56;;;;;;;5.95;3.83;;;;;;;18.92;55.20;98760.31;1788150;80;21055;-63
2021/09/09 07:59:24;;;;;;;9.23;3.87;;;;;;;19.03;55.22;98753.97;1788258;80;20884;-61
2021/09/09 08:01:51;;;;;;;12.00;3.42;;;;;;;19.15;55.67;98761.42;1788252;80;20966;-61
2021/09/09 08:04:19;;;;;;;8.95;3.60;;;;;;;19.28;53.78;98759.02;1787119;80;21481;-64
2021/09/09 08:06:47;;;;;;;8.63;3.30;;;;;;;19.37;53.15;98760.59;1788255;80;20926;-59
2021/09/09 08:09:15;;;;;;;5.33;3.02;;;;;;;19.45;53.20;98758.95;1782769;80;21105;-62
2021/09/09 08:11:44;;;;;;;7.70;3.62;;;;;;;19.53;53.32;98752.09;1747571;78;21010;-61
